Time;durP1;ratioP1;P1;durP2;ratioP2;P2;SDS_P1;SDS_P2;PMS_P1;PMS_P2;Temp;Humidity;BMP_temperature;BMP_pressure;BME280_temperature;BME280_humidity;BME280_pressure;Samples;Min_cycle;Max_cycle;Signal;HPM_P1;HPM_P2
2022/04/02 00:02:00;;;;;;;26.80;15.83;;;1.80;99.90;;;;;;5012163;28;20408;-51
2022/04/02 00:04:26;;;;;;;24.45;15.13;;;1.60;99.90;;;;;;5015504;28;20401;-51
2022/04/02 00:06:54;;;;;;;25.50;15.45;;;1.60;99.90;;;;;;5015560;28;20391;-50
2022/04/02 00:09:20;;;;;;;24.75;15.68;;;1.60;99.90;;;;;;5017631;28;20418;-53
2022/04/02 00:11:46;;;;;;;24.15;15.27;;;1.70;99.90;;;;;;4997394;28;20798;-53
2022/04/02 00:14:12;;;;;;;26.63;16.20;;;1.70;99.90;;;;;;5011371;28;20389;-52
2022/04/02 00:16:37;;;;;;;26.77;16.67;;;1.70;99.90;;;;;;5011458;28;20415;-52
2022/04/02 00:19:03;;;;;;;27.80;16.80;;;1.70;99.90;;;;;;5011439;28;20695;-53
2022/04/02 00:21:30;;;;;;;27.20;17.35;;;1.60;99.90;;;;;;5010098;28;20431;-53
2022/04/02 00:23:57;;;;;;;29.88;17.60;;;1.60;99.90;;;;;;5010922;28;20417;-52
2022/04/02 00:26:23;;;;;;;28.17;16.60;;;1.60;99.90;;;;;;5010907;28;20397;-52
2022/04/02 00:28:50;;;;;;;28.67;17.50;;;1.70;99.90;;;;;;4994269;28;21173;-53
2022/04/02 00:31:16;;;;;;;28.33;16.00;;;1.70;99.90;;;;;;5011383;28;20392;-52
2022/04/02 00:33:45;;;;;;;32.10;17.95;;;1.60;99.90;;;;;;5011733;28;20446;-53
2022/04/02 00:36:11;;;;;;;31.35;17.73;;;0.60;99.90;;;;;;5010886;28;20393;-52
2022/04/02 00:38:39;;;;;;;27.13;16.17;;;1.80;99.90;;;;;;4992884;28;20439;-52
2022/04/02 00:41:06;;;;;;;27.52;15.07;;;1.80;99.90;;;;;;5011724;28;20416;-53
2022/04/02 00:43:32;;;;;;;27.90;17.10;;;1.70;99.90;;;;;;5010803;28;20388;-53
2022/04/02 00:46:10;;;;;;;30.40;16.53;;;1.70;99.90;;;;;;5010594;28;20443;-52
2022/04/02 00:48:36;;;;;;;27.10;16.50;;;1.60;99.90;;;;;;5006934;28;20389;-53
2022/04/02 00:51:04;;;;;;;31.25;17.15;;;1.60;99.90;;;;;;5011234;28;20407;-53
2022/04/02 00:53:43;;;;;;;27.42;17.10;;;1.70;99.90;;;;;;5010594;28;20397;-53
2022/04/02 00:56:09;;;;;;;26.55;15.35;;;1.60;99.90;;;;;;5011572;28;20396;-53
2022/04/02 00:58:35;;;;;;;25.45;15.65;;;1.50;99.90;;;;;;5009988;28;21045;-54
2022/04/02 01:01:01;;;;;;;27.55;16.10;;;1.60;99.90;;;;;;5010833;28;20425;-53
2022/04/02 01:03:27;;;;;;;27.08;15.77;;;1.60;99.90;;;;;;5009550;28;20436;-54
2022/04/02 01:05:53;;;;;;;26.25;15.60;;;1.60;99.90;;;;;;5012829;28;20415;-53
2022/04/02 01:08:19;;;;;;;24.80;14.48;;;1.70;99.90;;;;;;5011262;28;20878;-53
2022/04/02 01:10:45;;;;;;;26.08;14.52;;;1.70;99.90;;;;;;5011195;28;20384;-52
2022/04/02 01:13:11;;;;;;;27.25;15.27;;;1.60;99.90;;;;;;4993872;28;20397;-52
2022/04/02 01:15:37;;;;;;;24.35;14.73;;;1.70;99.90;;;;;;5010443;28;20439;-54
2022/04/02 01:18:03;;;;;;;23.65;14.45;;;1.70;99.90;;;;;;5010994;28;20393;-54
2022/04/02 01:20:30;;;;;;;27.07;15.20;;;1.70;99.90;;;;;;5015196;28;20503;-51
2022/04/02 01:22:57;;;;;;;23.60;14.30;;;1.60;99.90;;;;;;4992787;28;20425;-53
2022/04/02 01:25:23;;;;;;;24.50;15.52;;;1.50;99.90;;;;;;5009879;28;20475;-52
2022/04/02 01:27:49;;;;;;;27.20;15.07;;;1.50;99.90;;;;;;5010044;28;20478;-53
2022/04/02 01:30:15;;;;;;;23.15;14.55;;;1.60;99.90;;;;;;5028447;28;20402;-51
2022/04/02 01:32:41;;;;;;;27.23;16.23;;;1.60;99.90;;;;;;5014726;28;20400;-52
2022/04/02 01:35:08;;;;;;;25.23;14.52;;;1.50;99.90;;;;;;5010385;28;20385;-53
2022/04/02 01:37:35;;;;;;;20.20;13.50;;;1.60;99.90;;;;;;5008454;28;20391;-55
2022/04/02 01:40:03;;;;;;;23.00;14.40;;;1.70;99.90;;;;;;5029793;28;20449;-52
2022/04/02 01:42:28;;;;;;;24.50;15.35;;;1.60;99.90;;;;;;5013187;28;20455;-53
2022/04/02 01:44:54;;;;;;;23.80;14.32;;;1.80;99.90;;;;;;5010328;28;20389;-54
2022/04/02 01:47:20;;;;;;;27.55;15.13;;;1.80;99.90;;;;;;5008928;28;20396;-54
2022/04/02 01:49:47;;;;;;;22.80;11.57;;;1.70;99.90;;;;;;5014359;28;20407;-53
2022/04/02 01:52:17;;;;;;;24.17;13.68;;;1.50;99.90;;;;;;5019927;28;20407;-50
2022/04/02 01:54:43;;;;;;;24.77;14.35;;;1.50;99.90;;;;;;5011996;28;20844;-53
2022/04/02 01:57:09;;;;;;;22.65;13.60;;;1.50;99.90;;;;;;5011559;28;20389;-53
2022/04/02 01:59:34;;;;;;;22.33;13.65;;;1.50;99.90;;;;;;5023988;28;20395;-54
2022/04/02 02:02:01;;;;;;;24.17;13.77;;;1.50;99.90;;;;;;5029653;28;20418;-53
2022/04/02 02:04:27;;;;;;;22.27;14.18;;;1.60;99.90;;;;;;4994596;28;20409;-53
2022/04/02 02:06:53;;;;;;;23.23;13.68;;;1.50;99.90;;;;;;5010058;28;20401;-53
2022/04/02 02:09:19;;;;;;;22.50;13.70;;;1.60;99.90;;;;;;4992882;28;20385;-53
2022/04/02 02:11:45;;;;;;;22.95;12.98;;;1.60;99.90;;;;;;5011627;28;20414;-53
2022/04/02 02:14:11;;;;;;;22.60;13.00;;;1.50;99.90;;;;;;5009980;28;20385;-53
2022/04/02 02:16:37;;;;;;;19.67;12.68;;;1.50;99.90;;;;;;5010442;28;20401;-53
2022/04/02 02:19:02;;;;;;;19.80;12.60;;;1.50;99.90;;;;;;5011343;28;20937;-53
2022/04/02 02:21:28;;;;;;;21.10;12.87;;;1.60;99.90;;;;;;5011366;28;20426;-53
2022/04/02 02:23:54;;;;;;;20.00;12.17;;;1.60;99.90;;;;;;5010072;28;20489;-53
2022/04/02 02:26:19;;;;;;;22.65;12.60;;;1.70;99.90;;;;;;5012349;28;20500;-53
2022/04/02 02:28:45;;;;;;;20.55;12.55;;;1.70;99.90;;;;;;5028031;28;20741;-53
2022/04/02 02:31:11;;;;;;;20.17;11.73;;;1.70;99.90;;;;;;5026252;28;20419;-52
2022/04/02 02:36:21;;;;;;;20.30;11.73;;;1.40;99.90;;;;;;5008989;28;20590;-52
2022/04/02 02:38:47;;;;;;;21.40;11.80;;;1.40;99.90;;;;;;5015608;28;20487;-52
2022/04/02 02:41:12;;;;;;;20.90;11.90;;;2.20;99.90;;;;;;5029545;28;20880;-52
2022/04/02 02:43:38;;;;;;;19.75;12.25;;;1.50;99.90;;;;;;5027218;28;20395;-52
2022/04/02 02:46:05;;;;;;;22.10;12.60;;;1.40;99.90;;;;;;5029663;28;20380;-52
2022/04/02 02:48:31;;;;;;;19.50;11.55;;;1.50;99.90;;;;;;5027071;28;20394;-53
2022/04/02 02:50:57;;;;;;;20.80;10.88;;;1.50;99.90;;;;;;5029394;28;20486;-53
2022/04/02 02:53:24;;;;;;;18.08;11.65;;;1.50;99.90;;;;;;5023774;28;20472;-52
2022/04/02 02:55:51;;;;;;;18.50;11.25;;;1.50;99.90;;;;;;5010817;28;20873;-53
2022/04/02 02:58:17;;;;;;;20.95;11.90;;;1.40;99.90;;;;;;5010355;28;20423;-51
2022/04/02 03:00:43;;;;;;;20.33;11.10;;;1.50;99.90;;;;;;5015061;28;20806;-53
2022/04/02 03:03:09;;;;;;;21.00;11.68;;;1.60;99.90;;;;;;5018394;28;20496;-53
2022/04/02 03:05:35;;;;;;;21.37;11.60;;;1.50;99.90;;;;;;5032487;28;20986;-53
2022/04/02 03:08:02;;;;;;;19.98;11.40;;;1.60;99.90;;;;;;5029119;28;20389;-53
2022/04/02 03:10:28;;;;;;;18.30;10.63;;;1.50;99.90;;;;;;5012980;28;20395;-53
2022/04/02 03:12:58;;;;;;;20.60;10.98;;;1.50;99.90;;;;;;5014471;28;20888;-53
2022/04/02 03:15:24;;;;;;;20.70;11.10;;;1.50;99.90;;;;;;5012599;28;20480;-52
2022/04/02 03:17:51;;;;;;;20.08;10.95;;;1.50;99.90;;;;;;5014394;28;20385;-52
2022/04/02 03:20:19;;;;;;;20.80;11.30;;;1.50;99.90;;;;;;5012889;28;20858;-50
2022/04/02 03:22:47;;;;;;;18.13;11.25;;;1.30;99.90;;;;;;5013985;28;20902;-52
2022/04/02 03:25:18;;;;;;;18.95;11.05;;;1.30;99.90;;;;;;5013228;28;20381;-52
2022/04/02 03:27:45;;;;;;;19.40;11.13;;;1.40;99.90;;;;;;5014551;28;20393;-52
2022/04/02 03:30:13;;;;;;;17.83;9.57;;;1.40;99.90;;;;;;5011902;28;20392;-52
2022/04/02 03:32:39;;;;;;;18.25;10.88;;;1.30;99.90;;;;;;5012373;28;20420;-52
2022/04/02 03:35:06;;;;;;;18.55;10.82;;;1.40;99.90;;;;;;5029177;28;20891;-53
2022/04/02 03:37:37;;;;;;;23.30;11.88;;;1.50;99.90;;;;;;5031886;28;20387;-52
2022/04/02 03:40:10;;;;;;;23.38;11.35;;;1.40;99.90;;;;;;5031154;28;20387;-53
2022/04/02 03:42:37;;;;;;;22.00;11.50;;;1.40;99.90;;;;;;5031417;28;20411;-53
2022/04/02 03:45:04;;;;;;;20.80;11.48;;;1.50;99.90;;;;;;5031562;28;20402;-53
2022/04/02 03:47:31;;;;;;;20.10;11.60;;;1.40;99.90;;;;;;5031767;28;20852;-53
2022/04/02 03:49:57;;;;;;;21.77;12.13;;;1.50;99.90;;;;;;5031779;28;20431;-53
2022/04/02 03:52:22;;;;;;;22.50;11.90;;;1.50;99.90;;;;;;5031979;28;21075;-53
2022/04/02 03:54:48;;;;;;;20.42;11.90;;;1.60;99.90;;;;;;5030315;28;20395;-53
2022/04/02 03:57:15;;;;;;;19.30;11.53;;;1.60;99.90;;;;;;5032498;28;20411;-53
2022/04/02 03:59:41;;;;;;;22.30;12.50;;;1.60;99.90;;;;;;5030112;28;20474;-53
2022/04/02 04:02:08;;;;;;;18.77;11.25;;;1.60;99.90;;;;;;5032529;28;20407;-52
2022/04/02 04:04:35;;;;;;;20.67;12.55;;;1.50;99.90;;;;;;5012631;28;20519;-52
2022/04/02 04:07:01;;;;;;;21.65;10.93;;;1.60;99.90;;;;;;5012516;28;20873;-52
2022/04/02 04:09:27;;;;;;;19.48;10.82;;;1.50;99.90;;;;;;5011564;28;20487;-53
2022/04/02 04:11:54;;;;;;;19.27;11.10;;;1.50;99.90;;;;;;4994066;28;20427;-53
2022/04/02 04:14:20;;;;;;;22.13;12.35;;;1.50;99.90;;;;;;5012943;28;20845;-51
2022/04/02 04:16:47;;;;;;;19.30;10.80;;;1.40;99.90;;;;;;5012474;28;20389;-52
2022/04/02 04:19:13;;;;;;;19.85;10.90;;;1.30;99.90;;;;;;5025409;28;20387;-53
2022/04/02 04:21:40;;;;;;;20.42;12.05;;;1.40;99.90;;;;;;5008246;28;20414;-54
2022/04/02 04:24:06;;;;;;;20.17;12.30;;;1.20;99.90;;;;;;5013231;28;20428;-53
2022/04/02 04:26:32;;;;;;;22.27;11.98;;;1.20;99.90;;;;;;5011433;28;20472;-52
2022/04/02 04:28:58;;;;;;;22.95;12.00;;;1.20;99.90;;;;;;5018177;28;20831;-53
2022/04/02 04:31:24;;;;;;;22.70;11.50;;;1.20;99.90;;;;;;5011231;28;20933;-52
2022/04/02 04:33:50;;;;;;;18.17;10.10;;;1.10;99.90;;;;;;5027876;28;20432;-52
2022/04/02 04:36:20;;;;;;;22.08;12.50;;;1.00;99.90;;;;;;5012099;28;20405;-52
2022/04/02 04:38:46;;;;;;;26.33;12.20;;;0.90;99.90;;;;;;5028731;28;20394;-52
2022/04/02 04:41:13;;;;;;;23.77;13.50;;;1.00;99.90;;;;;;5031599;28;20474;-52
2022/04/02 04:43:41;;;;;;;22.40;12.00;;;1.10;99.90;;;;;;5029010;28;20487;-52
2022/04/02 04:46:07;;;;;;;21.20;12.10;;;1.10;99.90;;;;;;5013759;28;20406;-52
2022/04/02 04:48:35;;;;;;;20.40;11.05;;;1.00;99.90;;;;;;5029266;28;20578;-52
2022/04/02 04:51:02;;;;;;;24.00;12.82;;;1.10;99.90;;;;;;5031627;28;20398;-53
2022/04/02 04:53:28;;;;;;;22.88;11.82;;;0.90;99.90;;;;;;5028999;28;20484;-52
2022/04/02 04:55:54;;;;;;;23.08;13.00;;;0.90;99.90;;;;;;5031408;28;20442;-52
2022/04/02 04:58:19;;;;;;;22.58;12.43;;;0.90;99.90;;;;;;5029215;28;20894;-51
2022/04/02 05:00:45;;;;;;;23.90;13.38;;;0.90;99.90;;;;;;5030749;28;20748;-52
2022/04/02 05:03:12;;;;;;;20.70;12.38;;;1.00;99.90;;;;;;5016571;28;20419;-52
2022/04/02 05:05:38;;;;;;;28.85;14.27;;;0.90;99.90;;;;;;5010694;28;20389;-52
2022/04/02 05:08:08;;;;;;;23.77;13.85;;;1.00;99.90;;;;;;5012363;28;20393;-52
2022/04/02 05:10:34;;;;;;;25.70;13.25;;;1.00;99.90;;;;;;5010822;28;20873;-52
2022/04/02 05:13:03;;;;;;;24.27;12.90;;;1.00;99.90;;;;;;5012080;28;20451;-52
2022/04/02 05:15:29;;;;;;;22.40;12.40;;;1.10;99.90;;;;;;5010536;28;20412;-52
2022/04/02 05:17:55;;;;;;;19.88;12.27;;;1.00;99.90;;;;;;5012539;28;20428;-52
2022/04/02 05:20:21;;;;;;;20.70;12.13;;;0.90;99.90;;;;;;5010263;28;20422;-50
2022/04/02 05:22:47;;;;;;;20.80;12.40;;;1.00;99.90;;;;;;5015459;28;20960;-52
2022/04/02 05:25:14;;;;;;;22.73;12.80;;;1.00;99.90;;;;;;5010807;28;20460;-52
2022/04/02 05:27:40;;;;;;;24.38;13.68;;;1.10;99.90;;;;;;5012484;28;20431;-52
2022/04/02 05:30:07;;;;;;;20.90;13.40;;;1.10;99.90;;;;;;5030882;28;20454;-53
2022/04/02 05:32:33;;;;;;;21.02;12.70;;;1.10;99.90;;;;;;5017977;28;20920;-52
2022/04/02 05:34:58;;;;;;;26.87;13.73;;;1.00;99.90;;;;;;4998842;28;20399;-52
2022/04/02 05:37:25;;;;;;;20.15;12.05;;;1.10;99.90;;;;;;5022388;28;20407;-52
2022/04/02 05:39:51;;;;;;;23.05;13.18;;;1.00;99.90;;;;;;5016435;28;20398;-53
2022/04/02 05:42:17;;;;;;;22.17;13.18;;;1.10;99.90;;;;;;5026517;28;20495;-52
2022/04/02 05:44:42;;;;;;;19.92;11.18;;;1.00;99.90;;;;;;5015612;28;20402;-52
2022/04/02 05:47:09;;;;;;;24.10;13.47;;;1.00;99.90;;;;;;5030840;28;20440;-52
2022/04/02 05:49:35;;;;;;;22.13;12.57;;;1.10;99.90;;;;;;5027522;28;20415;-52
2022/04/02 05:52:03;;;;;;;22.15;12.75;;;1.20;99.90;;;;;;5030417;28;20872;-52
2022/04/02 05:54:29;;;;;;;21.25;11.90;;;1.20;99.90;;;;;;5025120;28;20408;-52
2022/04/02 05:56:55;;;;;;;20.80;12.23;;;1.20;99.90;;;;;;5007911;28;20801;-52
2022/04/02 05:59:22;;;;;;;17.67;11.27;;;1.20;99.90;;;;;;5001651;28;20439;-50
2022/04/02 06:01:48;;;;;;;18.58;11.70;;;1.20;99.90;;;;;;5022465;28;20462;-52
2022/04/02 06:04:14;;;;;;;22.13;12.15;;;1.20;99.90;;;;;;5005392;28;20430;-52
2022/04/02 06:06:40;;;;;;;19.17;11.88;;;1.20;99.90;;;;;;5003501;28;20407;-52
2022/04/02 06:09:06;;;;;;;19.05;10.85;;;1.30;99.90;;;;;;5010320;28;20381;-52
2022/04/02 06:11:32;;;;;;;19.27;11.50;;;1.40;99.90;;;;;;5010434;28;20483;-52
2022/04/02 06:13:58;;;;;;;17.75;11.25;;;1.40;99.90;;;;;;5019402;28;20443;-51
2022/04/02 06:16:25;;;;;;;17.88;9.02;;;1.50;99.90;;;;;;5009901;28;20401;-52
2022/04/02 06:18:51;;;;;;;16.90;9.63;;;1.60;99.90;;;;;;4992520;28;20474;-52
2022/04/02 06:21:17;;;;;;;18.45;10.77;;;2.50;99.90;;;;;;5011147;28;20404;-52
2022/04/02 06:23:42;;;;;;;17.13;9.80;;;1.30;99.90;;;;;;5008888;28;20428;-52
2022/04/02 06:26:09;;;;;;;17.98;10.93;;;1.30;99.90;;;;;;5025770;28;20736;-52
2022/04/02 06:28:37;;;;;;;18.60;11.50;;;1.40;99.90;;;;;;5011303;28;20397;-52
2022/04/02 06:31:06;;;;;;;19.50;10.87;;;1.50;99.90;;;;;;5016785;28;20514;-52
2022/04/02 06:33:33;;;;;;;17.30;10.70;;;1.60;99.90;;;;;;5020023;28;20767;-51
2022/04/02 06:35:59;;;;;;;17.48;10.60;;;1.60;99.90;;;;;;5010854;28;20397;-52
2022/04/02 06:38:26;;;;;;;17.17;10.40;;;1.80;99.90;;;;;;5008682;28;20858;-51
2022/04/02 06:40:51;;;;;;;17.75;9.90;;;1.60;99.90;;;;;;4992370;28;20761;-52
2022/04/02 06:43:17;;;;;;;16.25;9.43;;;1.60;99.90;;;;;;5008832;28;20416;-52
2022/04/02 06:45:43;;;;;;;16.38;8.38;;;1.50;99.90;;;;;;5008386;28;20476;-52
2022/04/02 06:48:09;;;;;;;17.77;9.10;;;1.30;99.90;;;;;;5009055;28;20376;-52
2022/04/02 06:50:36;;;;;;;18.38;10.73;;;1.50;99.90;;;;;;5011294;28;20411;-52
2022/04/02 06:53:01;;;;;;;15.60;8.45;;;1.50;99.90;;;;;;5008844;28;20404;-51
2022/04/02 06:55:27;;;;;;;15.60;8.33;;;1.30;99.90;;;;;;5008022;28;20412;-52
2022/04/02 06:57:56;;;;;;;16.33;9.07;;;1.30;99.90;;;;;;5004114;28;20393;-52
2022/04/02 07:00:23;;;;;;;19.38;10.02;;;1.50;99.90;;;;;;4996101;28;20385;-50
2022/04/02 07:02:49;;;;;;;15.00;8.33;;;1.50;99.90;;;;;;5004155;28;20421;-51
2022/04/02 07:05:15;;;;;;;14.33;8.47;;;1.30;99.90;;;;;;5008899;28;20516;-50
2022/04/02 07:07:41;;;;;;;15.32;8.80;;;1.30;99.90;;;;;;5009675;28;20397;-51
2022/04/02 07:10:08;;;;;;;14.35;8.40;;;1.20;99.90;;;;;;5008854;28;20384;-51
2022/04/02 07:12:37;;;;;;;15.23;8.60;;;1.20;99.90;;;;;;5007009;28;20401;-51
2022/04/02 07:15:04;;;;;;;20.37;9.93;;;1.20;99.90;;;;;;5008150;28;20443;-50
2022/04/02 07:17:30;;;;;;;16.48;8.70;;;1.40;99.90;;;;;;5026771;28;20772;-50
2022/04/02 07:19:57;;;;;;;16.50;9.53;;;1.30;99.90;;;;;;5029305;28;20861;-51
2022/04/02 07:22:23;;;;;;;14.85;8.70;;;1.50;99.90;;;;;;5026686;28;20415;-50
2022/04/02 07:24:54;;;;;;;15.43;9.63;;;1.70;99.90;;;;;;5029416;28;20375;-51
2022/04/02 07:27:26;;;;;;;14.60;8.52;;;1.90;99.90;;;;;;5027659;28;20433;-52
2022/04/02 07:29:53;;;;;;;14.40;8.60;;;1.90;99.90;;;;;;5029155;28;20395;-53
2022/04/02 07:32:19;;;;;;;13.23;7.85;;;1.90;99.90;;;;;;5011262;28;20408;-53
2022/04/02 07:34:45;;;;;;;15.07;8.77;;;2.00;99.90;;;;;;5007652;28;20434;-53
2022/04/02 07:37:40;;;;;;;15.90;8.32;;;2.10;99.90;;;;;;5009394;28;20443;-51
2022/04/02 07:40:15;;;;;;;14.75;8.50;;;1.90;99.90;;;;;;5013001;28;20447;-50
2022/04/02 07:43:04;;;;;;;16.75;8.75;;;1.70;99.90;;;;;;5010940;28;21342;-50
2022/04/02 07:45:43;;;;;;;14.05;8.07;;;1.60;99.90;;;;;;5007781;28;20438;-50
2022/04/02 07:48:10;;;;;;;13.30;7.57;;;1.60;99.90;;;;;;5013136;28;20376;-51
2022/04/02 07:50:42;;;;;;;11.80;7.10;;;1.50;99.90;;;;;;5012395;28;20482;-50
2022/04/02 07:53:15;;;;;;;14.48;8.50;;;1.30;99.90;;;;;;4993758;28;20452;-50
2022/04/02 07:55:43;;;;;;;14.80;7.63;;;1.50;99.90;;;;;;5012675;28;20408;-50
2022/04/02 07:58:14;;;;;;;15.93;8.38;;;1.50;99.90;;;;;;5012270;28;20408;-50
2022/04/02 08:00:40;;;;;;;13.82;7.80;;;1.40;99.90;;;;;;5012843;28;20420;-51
2022/04/02 08:03:09;;;;;;;15.13;8.85;;;1.50;99.90;;;;;;5011597;28;20428;-51
2022/04/02 08:05:35;;;;;;;14.45;8.95;;;1.50;99.90;;;;;;4990708;28;20410;-50
2022/04/02 08:08:02;;;;;;;13.85;8.27;;;1.50;99.90;;;;;;5006506;28;20401;-50
2022/04/02 08:10:28;;;;;;;14.70;8.10;;;1.50;99.90;;;;;;4996300;28;20404;-50
2022/04/02 08:12:57;;;;;;;15.88;8.13;;;1.40;99.90;;;;;;5011941;28;20397;-51
2022/04/02 08:15:24;;;;;;;15.38;8.80;;;1.30;99.90;;;;;;5014051;28;20611;-50
2022/04/02 08:17:53;;;;;;;15.95;8.77;;;1.30;99.90;;;;;;5011802;28;20424;-50
2022/04/02 08:20:19;;;;;;;17.20;9.60;;;1.30;99.90;;;;;;5011209;28;20419;-51
2022/04/02 08:22:45;;;;;;;11.70;6.53;;;1.80;99.90;;;;;;5009791;28;20416;-51
2022/04/02 08:25:13;;;;;;;14.85;8.75;;;1.20;99.90;;;;;;5001736;28;20408;-50
2022/04/02 08:28:05;;;;;;;14.30;8.50;;;1.20;99.90;;;;;;4991743;28;20408;-51
2022/04/02 08:30:44;;;;;;;17.95;9.05;;;1.30;99.90;;;;;;5006844;28;20731;-51
2022/04/02 08:33:34;;;;;;;16.20;9.20;;;1.50;99.90;;;;;;5008800;28;20420;-50
2022/04/02 08:36:18;;;;;;;14.70;8.90;;;1.70;99.90;;;;;;5009764;28;20467;-50
2022/04/02 08:39:05;;;;;;;16.58;9.32;;;1.40;99.90;;;;;;5006504;28;21005;-51
2022/04/02 08:41:40;;;;;;;15.38;7.75;;;2.70;99.90;;;;;;5007729;28;20421;-51
2022/04/02 08:44:35;;;;;;;17.05;9.75;;;1.70;99.90;;;;;;5009425;28;20892;-51
2022/04/02 08:47:24;;;;;;;16.88;9.80;;;1.70;99.90;;;;;;5011145;28;21216;-50
2022/04/02 08:50:07;;;;;;;16.77;9.20;;;1.80;99.90;;;;;;4998723;28;20534;-51
2022/04/02 08:52:55;;;;;;;16.60;9.77;;;1.80;99.90;;;;;;5005237;28;20428;-50
2022/04/02 08:55:41;;;;;;;16.45;9.57;;;1.80;99.90;;;;;;5011939;28;20455;-51
2022/04/02 08:58:19;;;;;;;15.38;10.07;;;1.70;99.90;;;;;;5015558;28;20765;-53
2022/04/02 09:01:08;;;;;;;17.88;10.20;;;2.00;99.90;;;;;;5014081;28;20388;-51
2022/04/02 09:04:00;;;;;;;18.52;8.93;;;1.90;99.90;;;;;;4993920;28;20434;-51
2022/04/02 09:06:50;;;;;;;19.00;10.40;;;1.80;99.90;;;;;;5012177;28;20403;-52
2022/04/02 09:09:46;;;;;;;16.45;9.05;;;1.90;99.90;;;;;;5013655;28;20447;-53
2022/04/02 09:12:26;;;;;;;17.67;10.73;;;2.00;99.90;;;;;;5019520;28;20395;-53
2022/04/02 09:15:04;;;;;;;16.08;9.40;;;2.00;99.90;;;;;;5012268;28;20403;-54
2022/04/02 09:18:06;;;;;;;20.00;10.43;;;1.80;99.90;;;;;;5009195;28;21568;-53
2022/04/02 09:20:57;;;;;;;18.10;9.93;;;1.80;99.90;;;;;;5008020;28;20502;-53
2022/04/02 09:23:53;;;;;;;18.70;10.88;;;1.80;99.90;;;;;;5009841;28;20421;-54
2022/04/02 09:26:51;;;;;;;20.02;10.35;;;1.90;99.90;;;;;;5010175;28;20483;-53
2022/04/02 09:29:23;;;;;;;18.73;8.82;;;1.80;99.90;;;;;;4973791;28;20495;-54
2022/04/02 09:31:51;;;;;;;17.63;9.45;;;1.90;99.90;;;;;;4996765;28;20474;-54
2022/04/02 09:34:53;;;;;;;17.55;10.50;;;1.90;99.90;;;;;;5012335;28;20507;-53
2022/04/02 09:37:32;;;;;;;14.07;7.75;;;1.80;99.90;;;;;;4995549;28;20412;-53
2022/04/02 09:40:06;;;;;;;16.60;9.27;;;1.60;99.90;;;;;;5009576;28;20397;-53
2022/04/02 09:42:41;;;;;;;17.50;9.27;;;1.50;99.90;;;;;;5013281;28;20414;-51
2022/04/02 09:45:12;;;;;;;16.05;9.70;;;1.50;99.90;;;;;;5008232;28;20430;-51
2022/04/02 09:47:57;;;;;;;16.60;9.55;;;1.90;99.90;;;;;;5011936;28;20938;-54
2022/04/02 09:50:27;;;;;;;15.55;9.15;;;1.70;99.90;;;;;;5008602;28;20419;-54
2022/04/02 09:53:23;;;;;;;17.42;10.10;;;1.80;99.90;;;;;;5009932;28;20400;-51
2022/04/02 09:56:08;;;;;;;18.02;9.02;;;1.70;99.90;;;;;;5018217;28;20911;-51
2022/04/02 09:59:01;;;;;;;15.97;9.70;;;1.60;99.90;;;;;;4990570;28;20786;-51
2022/04/02 10:01:52;;;;;;;16.65;9.93;;;1.60;99.90;;;;;;5007532;28;20389;-50
2022/04/02 10:04:39;;;;;;;17.90;10.32;;;1.60;99.90;;;;;;5014483;28;20407;-54
2022/04/02 10:07:37;;;;;;;18.40;9.52;;;1.70;99.90;;;;;;5011375;28;20967;-53
2022/04/02 10:10:03;;;;;;;16.27;9.30;;;1.60;99.90;;;;;;5008165;28;20405;-50
2022/04/02 10:12:29;;;;;;;19.90;10.85;;;1.50;99.90;;;;;;5009816;28;20454;-50
2022/04/02 10:14:59;;;;;;;18.05;9.52;;;1.70;99.90;;;;;;5013882;28;20440;-51
2022/04/02 10:17:30;;;;;;;16.52;8.82;;;1.70;99.90;;;;;;5008856;28;20395;-52
2022/04/02 10:19:58;;;;;;;18.20;9.20;;;1.80;99.90;;;;;;5009653;28;20936;-53
2022/04/02 10:22:34;;;;;;;17.38;9.60;;;1.80;99.90;;;;;;5009031;28;20539;-53
2022/04/02 10:25:00;;;;;;;17.33;10.40;;;1.90;99.90;;;;;;5009125;28;20746;-53
2022/04/02 10:27:37;;;;;;;16.08;10.38;;;2.10;99.90;;;;;;5010687;28;20393;-51
2022/04/02 10:30:07;;;;;;;17.50;9.70;;;2.10;99.90;;;;;;5007393;28;20753;-53
2022/04/02 10:32:49;;;;;;;16.92;9.10;;;2.00;99.90;;;;;;5009780;28;20407;-53
2022/04/02 10:35:16;;;;;;;13.80;7.57;;;1.90;99.90;;;;;;5008988;28;20451;-52
2022/04/02 10:37:55;;;;;;;19.80;9.48;;;1.80;99.90;;;;;;5008489;28;20384;-53
2022/04/02 10:40:24;;;;;;;17.33;9.63;;;1.80;99.90;;;;;;5009111;28;20797;-53
2022/04/02 10:43:06;;;;;;;18.85;11.10;;;1.80;99.90;;;;;;5007885;28;20417;-53
2022/04/02 10:45:36;;;;;;;18.63;11.05;;;2.00;99.90;;;;;;5007671;28;20392;-53
2022/04/02 10:48:12;;;;;;;16.92;9.52;;;2.40;99.90;;;;;;5009610;28;20395;-53
2022/04/02 10:50:40;;;;;;;16.03;9.83;;;2.10;99.90;;;;;;5008703;28;20724;-53
2022/04/02 10:53:09;;;;;;;15.55;9.40;;;2.20;99.90;;;;;;5007235;28;20377;-53
2022/04/02 10:55:48;;;;;;;14.05;9.02;;;2.20;99.90;;;;;;5008751;28;20384;-53
2022/04/02 10:58:14;;;;;;;16.75;10.25;;;2.10;99.90;;;;;;5008486;28;20388;-53
2022/04/02 11:00:46;;;;;;;19.08;9.95;;;2.40;99.90;;;;;;5008723;28;20389;-54
2022/04/02 11:03:23;;;;;;;16.15;9.55;;;2.40;99.90;;;;;;5009419;28;20405;-54
2022/04/02 11:05:49;;;;;;;17.52;9.60;;;2.50;99.90;;;;;;4989472;28;20400;-54
2022/04/02 11:08:15;;;;;;;18.80;10.35;;;2.50;99.90;;;;;;5009583;28;20381;-53
2022/04/02 11:10:47;;;;;;;15.45;9.40;;;2.40;99.90;;;;;;5008833;28;20408;-54
2022/04/02 11:13:32;;;;;;;15.85;9.55;;;2.30;99.90;;;;;;5004243;28;20476;-52
2022/04/02 11:15:58;;;;;;;16.15;10.07;;;2.20;99.90;;;;;;5007769;28;20417;-52
2022/04/02 11:18:25;;;;;;;16.75;9.75;;;2.60;99.90;;;;;;5008566;28;20411;-52
2022/04/02 11:20:54;;;;;;;17.58;10.20;;;2.70;99.90;;;;;;5011531;28;20404;-52
2022/04/02 11:23:42;;;;;;;13.85;8.23;;;3.80;99.90;;;;;;5008186;28;20432;-52
2022/04/02 11:26:11;;;;;;;15.13;9.55;;;2.60;99.90;;;;;;4999183;28;20737;-52
2022/04/02 11:28:44;;;;;;;17.92;10.38;;;2.80;99.90;;;;;;5012379;28;20427;-56
2022/04/02 11:31:13;;;;;;;14.68;8.60;;;3.00;99.90;;;;;;5007505;28;20933;-54
2022/04/02 11:34:07;;;;;;;18.40;10.23;;;2.90;99.90;;;;;;5005733;28;20737;-54
2022/04/02 11:36:46;;;;;;;15.85;10.13;;;2.80;99.90;;;;;;5001338;28;20425;-54
2022/04/02 11:39:29;;;;;;;16.60;9.73;;;2.80;99.90;;;;;;5005083;28;20408;-54
2022/04/02 11:41:57;;;;;;;18.60;10.30;;;2.40;99.90;;;;;;5002192;28;20458;-54
2022/04/02 11:44:37;;;;;;;18.80;10.33;;;2.30;99.90;;;;;;5005703;28;20419;-54
2022/04/02 11:47:05;;;;;;;16.48;9.27;;;2.20;99.90;;;;;;5004973;28;20905;-53
2022/04/02 11:49:31;;;;;;;18.98;10.73;;;2.20;99.90;;;;;;5001934;28;20449;-52
2022/04/02 11:52:03;;;;;;;18.83;10.60;;;2.20;99.90;;;;;;5005791;28;20440;-53
2022/04/02 11:54:29;;;;;;;18.33;10.80;;;2.30;99.90;;;;;;5009706;28;20452;-52
2022/04/02 11:57:10;;;;;;;18.88;11.20;;;2.30;99.90;;;;;;5009362;28;20472;-53
2022/04/02 11:59:36;;;;;;;18.23;11.30;;;2.10;99.90;;;;;;5008842;28;20405;-53
2022/04/02 12:02:03;;;;;;;17.77;10.77;;;2.00;99.90;;;;;;5009619;28;20408;-53
2022/04/02 12:04:30;;;;;;;19.20;11.57;;;1.90;99.90;;;;;;5008615;28;20492;-52
2022/04/02 12:07:06;;;;;;;21.38;11.00;;;1.80;99.90;;;;;;5010089;28;20385;-53
2022/04/02 12:09:33;;;;;;;19.33;10.80;;;1.90;99.90;;;;;;5003817;28;20389;-50
2022/04/02 12:12:03;;;;;;;19.23;11.88;;;1.70;99.90;;;;;;5009301;28;20413;-54
2022/04/02 12:14:37;;;;;;;20.63;12.38;;;2.00;99.90;;;;;;4994608;28;20825;-53
2022/04/02 12:17:10;;;;;;;18.67;10.70;;;2.40;99.90;;;;;;5011924;28;20470;-54
2022/04/02 12:19:53;;;;;;;18.92;11.48;;;2.30;99.90;;;;;;4995394;28;20424;-51
2022/04/02 12:22:27;;;;;;;20.50;12.10;;;2.00;99.90;;;;;;5009526;28;20409;-52
2022/04/02 12:25:01;;;;;;;18.50;11.40;;;2.20;99.90;;;;;;5010384;28;20411;-54
2022/04/02 12:27:32;;;;;;;19.80;11.27;;;2.40;99.90;;;;;;5000853;28;20444;-50
2022/04/02 12:30:01;;;;;;;17.15;10.23;;;2.20;99.90;;;;;;5004197;28;20413;-54
2022/04/02 12:32:30;;;;;;;17.25;10.10;;;2.20;99.90;;;;;;5012331;28;20406;-53
2022/04/02 12:35:06;;;;;;;17.83;11.27;;;2.30;99.90;;;;;;5007058;28;20408;-53
2022/04/02 12:37:40;;;;;;;17.75;10.90;;;2.30;99.90;;;;;;5009503;28;20780;-50
2022/04/02 12:40:27;;;;;;;22.42;12.15;;;2.10;99.90;;;;;;4995179;28;20411;-54
2022/04/02 12:43:05;;;;;;;18.70;9.77;;;2.40;99.90;;;;;;5007109;28;20404;-54
2022/04/02 12:45:32;;;;;;;17.42;10.50;;;2.30;99.90;;;;;;4995065;28;20502;-51
2022/04/02 12:48:01;;;;;;;16.27;9.95;;;2.00;99.90;;;;;;4990880;28;20509;-52
2022/04/02 12:50:32;;;;;;;16.55;10.13;;;2.10;99.90;;;;;;5013894;28;20440;-51
2022/04/02 12:52:59;;;;;;;18.77;10.30;;;2.40;99.90;;;;;;4991819;28;20431;-52
2022/04/02 12:55:33;;;;;;;17.30;10.50;;;2.30;99.90;;;;;;5002244;28;20412;-54
2022/04/02 12:58:07;;;;;;;19.60;11.80;;;2.60;99.90;;;;;;5006671;28;20400;-55
2022/04/02 13:00:44;;;;;;;18.08;10.55;;;2.70;99.90;;;;;;5007953;28;20805;-55